createdAt,value
2023-05-06T00:00:17.625Z,98882.53
2023-05-06T00:03:43.229Z,98873.19
2023-05-06T00:06:47.197Z,98867.81
2023-05-06T00:09:51.064Z,98865.56
2023-05-06T00:12:54.606Z,98872.84
2023-05-06T00:15:58.658Z,98873.25
2023-05-06T00:19:04.267Z,98864.59
2023-05-06T00:22:07.946Z,98872.66
2023-05-06T00:25:11.980Z,98861.28
2023-05-06T00:28:15.910Z,98860.44
2023-05-06T00:31:19.459Z,98851.34
2023-05-06T00:34:24.660Z,98843.91
2023-05-06T00:37:28.180Z,98844.34
2023-05-06T00:40:32.321Z,98840.19
2023-05-06T00:43:35.772Z,98842.28
2023-05-06T00:46:40.427Z,98838.13
2023-05-06T00:49:48.104Z,98849.94
2023-05-06T00:52:52.993Z,98841.47
2023-05-06T00:55:57.360Z,98850.59
2023-05-06T00:59:02.341Z,98841.28
2023-05-06T01:02:06.123Z,98853.50
2023-05-06T01:05:12.521Z,98843.16
2023-05-06T01:08:26.380Z,98837.78
2023-05-06T01:11:42.320Z,98835.31
2023-05-06T01:15:00.970Z,98837.78
2023-05-06T01:18:12.798Z,98843.78
2023-05-06T01:21:22.216Z,98827.47
2023-05-06T01:24:38.826Z,98835.75
2023-05-06T01:27:42.319Z,98827.88
2023-05-06T01:31:00.954Z,98828.28
2023-05-06T01:34:18.788Z,98833.25
2023-05-06T01:37:33.000Z,98830.19
2023-05-06T01:40:39.788Z,98828.94
2023-05-06T01:43:48.133Z,98825.63
2023-05-06T01:46:55.016Z,98822.97
2023-05-06T01:50:00.408Z,98825.03
2023-05-06T01:53:04.987Z,98820.88
2023-05-06T01:56:10.574Z,98825.22
2023-05-06T01:59:14.969Z,98811.16
2023-05-06T02:02:18.811Z,98813.84
2023-05-06T02:05:22.242Z,98811.97
2023-05-06T02:08:30.655Z,98816.75
2023-05-06T02:11:35.517Z,98815.91
2023-05-06T02:14:42.916Z,98817.16
2023-05-06T02:17:46.569Z,98821.69
2023-05-06T02:20:50.406Z,98817.38
2023-05-06T02:23:53.861Z,98815.09
2023-05-06T02:26:59.136Z,98818.59
2023-05-06T02:30:03.602Z,98820.03
2023-05-06T02:33:07.495Z,98820.84
2023-05-06T02:36:11.452Z,98819.56
2023-05-06T02:39:15.454Z,98816.47
2023-05-06T02:42:21.285Z,98805.28
2023-05-06T02:45:25.122Z,98816.25
2023-05-06T02:48:29.580Z,98816.25
2023-05-06T02:51:34.136Z,98811.91
2023-05-06T02:54:37.562Z,98814.16
2023-05-06T02:57:42.923Z,98812.91
2023-05-06T03:00:46.543Z,98813.94
2023-05-06T03:03:50.823Z,98809.78
2023-05-06T03:06:54.306Z,98819.13
2023-05-06T03:09:58.159Z,98820.78
2023-05-06T03:13:03.161Z,98810.41
2023-05-06T03:16:13.469Z,98807.72
2023-05-06T03:19:19.324Z,98810.88
2023-05-06T03:22:23.189Z,98817.03
2023-05-06T03:25:26.978Z,98810.41
2023-05-06T03:28:33.451Z,98813.13
2023-05-06T03:31:39.297Z,98809.59
2023-05-06T03:34:43.417Z,98799.28
2023-05-06T03:37:50.237Z,98796.34
2023-05-06T03:40:54.889Z,98801.31
2023-05-06T03:44:00.026Z,98793.44
2023-05-06T03:47:05.009Z,98798.00
2023-05-06T03:50:11.415Z,98796.34
2023-05-06T03:53:17.203Z,98790.38
2023-05-06T03:56:23.331Z,98797.66
2023-05-06T03:59:31.014Z,98800.56
2023-05-06T04:02:36.823Z,98803.25
2023-05-06T04:05:41.686Z,98806.97
2023-05-06T04:08:46.805Z,98802.63
2023-05-06T04:11:51.415Z,98790.41
2023-05-06T04:14:56.965Z,98800.53
2023-05-06T04:18:01.511Z,98800.09
2023-05-06T04:21:06.067Z,98812.50
2023-05-06T04:24:13.762Z,98797.38
2023-05-06T04:27:17.851Z,98798.78
2023-05-06T04:30:24.544Z,98807.44
2023-05-06T04:33:28.413Z,98799.75
2023-05-06T04:36:35.377Z,98808.84
2023-05-06T04:39:50.285Z,98805.69
2023-05-06T04:42:54.596Z,98806.88
2023-05-06T04:46:03.698Z,98804.09
2023-05-06T04:49:12.364Z,98801.13
2023-05-06T04:52:16.540Z,98797.75
2023-05-06T04:55:20.385Z,98787.91
2023-05-06T04:58:28.152Z,98784.94
2023-05-06T05:01:34.917Z,98782.84
2023-05-06T05:04:38.316Z,98781.78
2023-05-06T05:07:42.313Z,98784.44
2023-05-06T05:10:46.327Z,98783.09
2023-05-06T05:13:56.725Z,98780.50
2023-05-06T05:17:02.403Z,98770.63
2023-05-06T05:20:08.385Z,98771.53
2023-05-06T05:23:13.308Z,98763.00
2023-05-06T05:26:17.738Z,98759.78
2023-05-06T05:29:23.574Z,98760.44
2023-05-06T05:32:29.439Z,98759.00
2023-05-06T05:35:33.393Z,98758.41
2023-05-06T05:38:37.628Z,98756.91
2023-05-06T05:41:41.480Z,98736.63
2023-05-06T05:44:45.657Z,98733.38
2023-05-06T05:47:50.813Z,98737.38
2023-05-06T05:50:55.460Z,98733.50
2023-05-06T05:53:59.129Z,98716.63
2023-05-06T05:57:04.353Z,98707.78
2023-05-06T06:00:12.259Z,98707.59
2023-05-06T06:03:24.433Z,98711.34
2023-05-06T06:06:28.045Z,98705.16
2023-05-06T06:09:32.358Z,98705.84
2023-05-06T06:12:36.931Z,98711.03
2023-05-06T06:15:42.425Z,98705.41
2023-05-06T06:18:47.401Z,98708.94
2023-05-06T06:21:51.215Z,98705.31
2023-05-06T06:24:54.924Z,98715.03
2023-05-06T06:27:58.686Z,98699.16
2023-05-06T06:31:02.215Z,98699.50
2023-05-06T06:34:08.979Z,98696.41
2023-05-06T06:37:13.710Z,98695.00
2023-05-06T06:40:17.895Z,98690.28
2023-05-06T06:43:21.369Z,98690.50
2023-05-06T06:46:32.172Z,98686.97
2023-05-06T06:49:37.117Z,98687.16
2023-05-06T06:52:40.971Z,98693.50
2023-05-06T06:55:44.968Z,98704.59
2023-05-06T06:58:49.307Z,98705.97
2023-05-06T07:01:53.615Z,98715.72
2023-05-06T07:04:58.735Z,98711.22
2023-05-06T07:08:02.147Z,98706.22
2023-05-06T07:11:06.102Z,98696.16
2023-05-06T07:14:09.980Z,98700.13
2023-05-06T07:17:13.761Z,98695.28
2023-05-06T07:20:18.707Z,98690.75
2023-05-06T07:23:22.505Z,98682.97
2023-05-06T07:26:26.329Z,98692.75
2023-05-06T07:29:30.394Z,98694.19
2023-05-06T07:32:33.790Z,98696.50
2023-05-06T07:35:39.082Z,98704.38
2023-05-06T07:38:42.802Z,98700.72
2023-05-06T07:41:47.344Z,98693.81
2023-05-06T07:44:50.692Z,98688.28
2023-05-06T07:47:54.489Z,98691.44
2023-05-06T07:51:00.705Z,98687.34
2023-05-06T07:54:04.240Z,98680.91
2023-05-06T07:57:07.895Z,98676.00
2023-05-06T08:00:12.868Z,98672.38
2023-05-06T08:03:17.005Z,98664.94
2023-05-06T08:06:22.032Z,98670.13
2023-05-06T08:09:25.842Z,98668.09
2023-05-06T08:12:29.257Z,98660.19
2023-05-06T08:15:33.099Z,98662.31
2023-05-06T08:18:36.651Z,98653.72
2023-05-06T08:21:41.690Z,98654.38
2023-05-06T08:24:45.462Z,98656.50
2023-05-06T08:27:49.162Z,98658.97
2023-05-06T08:30:52.516Z,98654.38
2023-05-06T08:33:56.192Z,98655.59
2023-05-06T08:37:01.796Z,98661.66
2023-05-06T08:40:14.254Z,98656.56
2023-05-06T08:43:22.168Z,98657.09
2023-05-06T08:46:27.445Z,98653.31
2023-05-06T08:49:31.577Z,98649.94
2023-05-06T08:52:37.924Z,98659.88
2023-05-06T08:55:43.598Z,98649.84
2023-05-06T08:58:47.799Z,98651.41
2023-05-06T09:01:52.453Z,98655.75
2023-05-06T09:04:57.086Z,98651.00
2023-05-06T09:08:02.257Z,98653.31
2023-05-06T09:11:22.263Z,98633.88
2023-05-06T09:14:26.218Z,98635.25
2023-05-06T09:17:33.421Z,98627.94
2023-05-06T09:20:41.444Z,98620.88
2023-05-06T09:23:46.892Z,98619.03
2023-05-06T09:26:55.092Z,98620.13
2023-05-06T09:30:04.943Z,98610.03
2023-05-06T09:33:10.274Z,98605.66
2023-05-06T09:36:14.282Z,98614.69
2023-05-06T09:39:19.501Z,98610.84
2023-05-06T09:42:25.358Z,98605.56
2023-05-06T09:45:30.849Z,98603.81
2023-05-06T09:48:34.800Z,98609.25
2023-05-06T09:51:38.748Z,98623.28
2023-05-06T09:54:44.528Z,98624.56
2023-05-06T09:57:50.127Z,98626.25
2023-05-06T10:00:55.814Z,98623.72
2023-05-06T10:04:05.473Z,98657.38
2023-05-06T10:07:12.505Z,98659.03
2023-05-06T10:10:18.273Z,98650.66
2023-05-06T10:13:24.656Z,98632.16
2023-05-06T10:16:29.472Z,98628.22
2023-05-06T10:19:34.493Z,98626.50
2023-05-06T10:22:53.661Z,98620.91
2023-05-06T10:26:07.494Z,98613.75
2023-05-06T10:29:12.293Z,98615.63
2023-05-06T10:32:16.061Z,98626.78
2023-05-06T10:35:39.051Z,98616.25
2023-05-06T10:38:47.349Z,98615.66
2023-05-06T10:41:52.688Z,98621.44
2023-05-06T10:45:01.072Z,98615.84
2023-05-06T10:48:12.763Z,98624.38
2023-05-06T10:51:28.257Z,98628.03
2023-05-06T10:54:32.098Z,98616.84
2023-05-06T10:57:43.349Z,98625.09
2023-05-06T11:00:55.759Z,98622.28
2023-05-06T11:04:00.641Z,98611.00
2023-05-06T11:07:10.558Z,98595.97
2023-05-06T11:10:14.063Z,98590.06
2023-05-06T11:13:26.242Z,98583.78
2023-05-06T11:16:49.336Z,98571.59
2023-05-06T11:20:20.597Z,98565.25
2023-05-06T11:23:45.272Z,98565.44
2023-05-06T11:26:49.260Z,98564.72
2023-05-06T11:29:54.070Z,98558.72
2023-05-06T11:33:05.685Z,98559.69
2023-05-06T11:36:17.187Z,98561.59
2023-05-06T11:39:21.030Z,98549.75
2023-05-06T11:42:29.942Z,98556.28
2023-05-06T11:45:44.008Z,98558.19
2023-05-06T11:48:47.416Z,98578.34
2023-05-06T11:51:51.634Z,98561.88
2023-05-06T11:54:55.893Z,98575.91
2023-05-06T11:57:59.950Z,98584.28
2023-05-06T12:01:05.785Z,98600.38
2023-05-06T12:04:10.029Z,98610.59
2023-05-06T12:07:16.296Z,98642.13
2023-05-06T12:10:20.851Z,98650.56
2023-05-06T12:13:24.478Z,98652.91
2023-05-06T12:16:30.317Z,98658.28
2023-05-06T12:19:34.147Z,98631.97
2023-05-06T12:22:39.040Z,98618.69
2023-05-06T12:25:44.618Z,98596.34
2023-05-06T12:28:48.624Z,98599.34
2023-05-06T12:32:10.356Z,98599.34
2023-05-06T12:35:26.719Z,98596.25
2023-05-06T12:38:32.209Z,98599.09
2023-05-06T12:41:42.817Z,98584.84
2023-05-06T12:44:46.236Z,98592.50
2023-05-06T12:47:59.417Z,98585.34
2023-05-06T12:51:18.630Z,98582.88
2023-05-06T12:54:32.456Z,98575.91
2023-05-06T12:57:37.094Z,98571.34
2023-05-06T13:00:40.934Z,98571.09
2023-05-06T13:03:45.852Z,98577.81
2023-05-06T13:06:50.882Z,98581.78
2023-05-06T13:09:54.265Z,98588.97
2023-05-06T13:12:59.361Z,98597.69
2023-05-06T13:16:03.098Z,98592.75
2023-05-06T13:19:10.913Z,98578.16
2023-05-06T13:22:18.842Z,98592.16
2023-05-06T13:25:22.827Z,98587.34
2023-05-06T13:28:26.863Z,98591.69
2023-05-06T13:31:31.432Z,98597.19
2023-05-06T13:34:36.792Z,98597.91
2023-05-06T13:37:40.495Z,98597.09
2023-05-06T13:40:47.740Z,98591.69
2023-05-06T13:43:51.365Z,98581.47
2023-05-06T13:46:55.088Z,98587.78
2023-05-06T13:50:00.018Z,98588.84
2023-05-06T13:53:03.723Z,98588.25
2023-05-06T13:56:07.663Z,98582.28
2023-05-06T13:59:12.701Z,98577.72
2023-05-06T14:02:16.936Z,98577.94
2023-05-06T14:05:22.192Z,98577.34
2023-05-06T14:08:25.893Z,98568.66
2023-05-06T14:11:29.599Z,98573.91
2023-05-06T14:14:33.060Z,98572.28
2023-05-06T14:17:37.131Z,98571.22
2023-05-06T14:20:42.207Z,98559.13
2023-05-06T14:23:45.871Z,98556.78
2023-05-06T14:26:49.248Z,98567.59
2023-05-06T14:29:52.928Z,98567.22
2023-05-06T14:32:56.771Z,98572.88
2023-05-06T14:36:03.461Z,98569.34
2023-05-06T14:39:07.539Z,98569.34
2023-05-06T14:42:11.376Z,98564.53
2023-05-06T14:45:15.900Z,98568.03
2023-05-06T14:48:19.657Z,98569.00
2023-05-06T14:51:24.679Z,98569.00
2023-05-06T14:54:29.329Z,98568.41
2023-05-06T14:57:32.750Z,98572.16
2023-05-06T15:00:36.451Z,98572.75
2023-05-06T15:03:40.226Z,98570.63
2023-05-06T15:06:45.394Z,98570.88
2023-05-06T15:09:48.848Z,98563.59
2023-05-06T15:12:52.492Z,98575.56
2023-05-06T15:15:55.973Z,98575.69
2023-05-06T15:18:59.618Z,98568.19
2023-05-06T15:22:04.569Z,98574.66
2023-05-06T15:25:16.623Z,98570.53
2023-05-06T15:28:26.242Z,98575.47
2023-05-06T15:31:31.950Z,98580.03
2023-05-06T15:34:35.953Z,98591.44
2023-05-06T15:37:41.014Z,98585.00
2023-05-06T15:40:52.092Z,98573.34
2023-05-06T15:43:58.260Z,98582.03
2023-05-06T15:47:02.262Z,98573.69
2023-05-06T15:50:14.135Z,98566.63
2023-05-06T15:53:30.185Z,98564.44
2023-05-06T15:56:39.360Z,98568.78
2023-05-06T15:59:45.082Z,98560.16
2023-05-06T16:02:48.945Z,98563.47
2023-05-06T16:05:54.843Z,98562.31
2023-05-06T16:09:01.003Z,98570.06
2023-05-06T16:12:05.039Z,98562.19
2023-05-06T16:15:10.336Z,98569.69
2023-05-06T16:18:14.012Z,98567.69
2023-05-06T16:21:17.741Z,98570.63
2023-05-06T16:24:22.650Z,98566.75
2023-05-06T16:27:27.478Z,98575.31
2023-05-06T16:30:30.972Z,98579.09
2023-05-06T16:33:34.618Z,98579.50
2023-05-06T16:36:38.212Z,98581.16
2023-05-06T16:39:43.280Z,98587.41
2023-05-06T16:42:46.806Z,98582.69
2023-05-06T16:45:50.484Z,98585.03
2023-05-06T16:48:54.763Z,98585.72
2023-05-06T16:52:00.469Z,98586.78
2023-05-06T16:55:07.323Z,98593.81
2023-05-06T16:58:11.089Z,98592.19
2023-05-06T17:01:14.517Z,98598.03
2023-05-06T17:04:18.258Z,98601.00
2023-05-06T17:07:21.800Z,98605.81
2023-05-06T17:10:29.365Z,98606.47
2023-05-06T17:13:32.759Z,98599.44
2023-05-06T17:16:36.500Z,98596.97
2023-05-06T17:19:39.903Z,98597.53
2023-05-06T17:22:43.562Z,98595.28
2023-05-06T17:25:48.533Z,98607.13
2023-05-06T17:28:52.397Z,98605.47
2023-05-06T17:31:56.038Z,98601.13
2023-05-06T17:34:59.712Z,98605.72
2023-05-06T17:38:03.162Z,98604.31
2023-05-06T17:41:08.304Z,98606.66
2023-05-06T17:44:12.000Z,98606.28
2023-05-06T17:47:16.625Z,98602.03
2023-05-06T17:50:20.287Z,98612.91
2023-05-06T17:53:23.999Z,98613.38
2023-05-06T17:56:29.079Z,98624.63
2023-05-06T17:59:32.736Z,98626.72
2023-05-06T18:02:37.881Z,98628.81
2023-05-06T18:05:41.657Z,98625.50
2023-05-06T18:08:45.597Z,98635.69
2023-05-06T18:11:50.870Z,98624.19
2023-05-06T18:14:55.344Z,98631.06
2023-05-06T18:17:59.111Z,98633.03
2023-05-06T18:21:02.848Z,98636.22
2023-05-06T18:24:16.145Z,98639.03
2023-05-06T18:27:21.918Z,98648.00
2023-05-06T18:30:26.248Z,98653.91
2023-05-06T18:33:29.822Z,98656.91
2023-05-06T18:36:34.977Z,98665.03
2023-05-06T18:39:42.799Z,98659.94
2023-05-06T18:42:48.495Z,98673.63
2023-05-06T18:45:53.828Z,98676.19
2023-05-06T18:48:58.001Z,98675.41
2023-05-06T18:52:02.460Z,98683.13
2023-05-06T18:55:07.484Z,98687.28
2023-05-06T18:58:12.470Z,98698.28
2023-05-06T19:01:17.351Z,98701.41
2023-05-06T19:04:20.858Z,98709.53
2023-05-06T19:07:24.586Z,98708.75
2023-05-06T19:10:28.318Z,98706.31
2023-05-06T19:13:33.426Z,98704.28
2023-05-06T19:16:37.087Z,98702.25
2023-05-06T19:19:40.761Z,98701.41
2023-05-06T19:22:44.492Z,98714.47
2023-05-06T19:25:48.336Z,98712.00
2023-05-06T19:28:53.559Z,98722.16
2023-05-06T19:31:57.319Z,98718.84
2023-05-06T19:35:07.877Z,98726.31
2023-05-06T19:38:12.109Z,98726.13
2023-05-06T19:41:15.676Z,98723.25
2023-05-06T19:44:20.763Z,98720.00
2023-05-06T19:47:24.327Z,98731.78
2023-05-06T19:50:28.990Z,98730.53
2023-05-06T19:53:32.472Z,98725.56
2023-05-06T19:56:36.301Z,98727.03
2023-05-06T19:59:41.431Z,98726.88
2023-05-06T20:02:45.418Z,98735.97
2023-05-06T20:05:48.941Z,98735.78
2023-05-06T20:08:52.599Z,98735.16
2023-05-06T20:11:56.187Z,98736.41
2023-05-06T20:15:01.239Z,98739.75
2023-05-06T20:18:05.532Z,98737.88
2023-05-06T20:21:09.283Z,98741.03
2023-05-06T20:24:13.166Z,98737.72
2023-05-06T20:27:16.915Z,98744.75
2023-05-06T20:30:22.606Z,98748.69
2023-05-06T20:33:26.316Z,98742.69
2023-05-06T20:36:29.671Z,98746.81
2023-05-06T20:39:33.997Z,98751.16
2023-05-06T20:42:37.920Z,98760.69
2023-05-06T20:45:43.068Z,98769.78
2023-05-06T20:48:46.524Z,98770.00
2023-05-06T20:51:50.174Z,98772.88
2023-05-06T20:54:53.863Z,98773.09
2023-05-06T20:57:57.536Z,98770.41
2023-05-06T21:01:04.266Z,98774.56
2023-05-06T21:04:07.957Z,98774.16
2023-05-06T21:07:11.448Z,98786.56
2023-05-06T21:10:15.191Z,98780.34
2023-05-06T21:13:18.718Z,98788.63
2023-05-06T21:16:23.889Z,98785.31
2023-05-06T21:19:27.536Z,98783.25
2023-05-06T21:22:31.203Z,98794.81
2023-05-06T21:25:34.769Z,98782.41
2023-05-06T21:28:38.727Z,98781.38
2023-05-06T21:31:43.652Z,98786.97
2023-05-06T21:34:47.289Z,98783.44
2023-05-06T21:37:51.005Z,98787.16
2023-05-06T21:40:55.736Z,98789.84
2023-05-06T21:43:59.100Z,98787.78
2023-05-06T21:47:04.138Z,98783.66
2023-05-06T21:50:10.811Z,98790.28
2023-05-06T21:53:14.415Z,98799.78
2023-05-06T21:56:18.048Z,98803.50
2023-05-06T21:59:21.727Z,98813.44
2023-05-06T22:02:26.931Z,98796.28
2023-05-06T22:05:30.631Z,98805.16
2023-05-06T22:08:34.150Z,98807.66
2023-05-06T22:11:38.649Z,98813.63
2023-05-06T22:14:42.483Z,98809.31
2023-05-06T22:17:48.085Z,98806.84
2023-05-06T22:20:52.476Z,98815.31
2023-05-06T22:23:56.122Z,98817.78
2023-05-06T22:26:59.835Z,98813.44
2023-05-06T22:30:03.701Z,98810.13
2023-05-06T22:33:08.650Z,98809.09
2023-05-06T22:36:12.334Z,98813.25
2023-05-06T22:39:15.728Z,98808.69
2023-05-06T22:42:20.450Z,98809.72
2023-05-06T22:45:24.024Z,98811.38
2023-05-06T22:48:29.140Z,98811.78
2023-05-06T22:51:33.337Z,98803.28
2023-05-06T22:54:36.996Z,98805.97
2023-05-06T22:57:40.715Z,98798.09
2023-05-06T23:00:47.763Z,98799.56
2023-05-06T23:03:52.921Z,98809.25
2023-05-06T23:06:57.412Z,98806.75
2023-05-06T23:10:01.208Z,98807.19
2023-05-06T23:13:05.379Z,98811.13
2023-05-06T23:16:10.269Z,98814.19
2023-05-06T23:19:15.408Z,98822.88
2023-05-06T23:22:19.199Z,98834.88
2023-05-06T23:25:22.854Z,98831.56
2023-05-06T23:28:26.386Z,98841.66
2023-05-06T23:31:30.124Z,98841.47
2023-05-06T23:34:35.049Z,98841.66
2023-05-06T23:37:38.896Z,98842.88
2023-05-06T23:40:42.672Z,98846.00
2023-05-06T23:43:46.452Z,98843.31
2023-05-06T23:46:50.081Z,98844.75
2023-05-06T23:49:55.328Z,98845.78
2023-05-06T23:52:58.708Z,98846.19
2023-05-06T23:56:02.653Z,98847.44
2023-05-06T23:59:06.186Z,98842.88
